Flight Track Log - Related Links

Times and Time Zones

All times are in EDT time to prevent confusion due to time zone crossing. See the EJA729 flight status page for this flight to view local times or setup timezone preferences in your user account.

Time Position Orientation Groundspeed Altitude Reporting Facility
EDT Latitude Longitude Course Direction KTS MPH feet Rate Location/Type
Thu 03:48:49 PM 39.2497 -106.8756 90° East 199 229 39,000  Level Denver Center
Thu 03:49:51 PM 39.2825 -106.9225 312° West 220 253 11,000 -12,774 Descending Denver Center
Thu 03:50:53 PM 39.3019 -107.0142 285° West 267 307 12,600 1,839 Climbing Denver Center
Thu 03:51:55 PM 39.3575 -107.1128 306° West 331 381 14,800 2,516 Climbing Denver Center
Thu 03:52:57 PM 39.4361 -107.2164 315° West 357 411 17,800 2,855 Climbing Denver Center
Thu 03:53:59 PM 39.5247 -107.1767 19° North 373 429 20,700 2,565 Climbing Denver Center
Thu 03:54:00 PM 40.0167 -106.7703 90° East  Level FlightAware Approximate
Thu 03:55:01 PM 39.5992 -107.0483 53° Northeast 389 448 23,100  Level Denver Center
Thu 03:56:03 PM 39.6531 -106.9161 62° Northeast 426 490 24,500 1,500 Climbing Denver Center
Thu 03:57:05 PM 39.7167 -106.7533 63° Northeast 452 520 26,200 1,548 Climbing Denver Center
Thu 03:58:07 PM 39.7756 -106.6022 63° Northeast 462 532 27,700 1,452 Climbing Denver Center
Thu 03:59:09 PM 39.8350 -106.4478 63° Northeast 473 544 29,200 1,452 Climbing Denver Center
Thu 04:00:11 PM 39.8950 -106.2914 63° Northeast 480 552 30,700 1,452 Climbing Denver Center
Thu 04:01:13 PM 39.9528 -106.1372 64° Northeast 474 545 32,200 1,440 Climbing Denver Center
Thu 04:02:16 PM 40.0119 -105.9842 63° Northeast 472 543 33,700 1,584 Climbing Denver Center
Thu 04:03:18 PM 40.0789 -105.8031 64° Northeast 467 537 35,500 1,597 Climbing Denver Center
Thu 04:04:20 PM 40.1386 -105.6531 62° Northeast 466 536 37,000 1,403 Climbing Denver Center
Thu 04:05:22 PM 40.1908 -105.5081 65° Northeast 446 513 38,400 968 Climbing Denver Center
Thu 04:06:24 PM 40.2544 -105.3478 62° Northeast 459 528 39,000 290 Climbing Denver Center
Thu 04:07:26 PM 40.3075 -105.1958 65° Northeast 458 527 39,000  Level Denver Center
Thu 04:08:28 PM 40.3700 -105.0297 64° Northeast 471 542 39,000  Level Denver Center
Thu 04:09:30 PM 40.4261 -104.8775 64° Northeast 462 532 39,000  Level Denver Center
Thu 04:10:32 PM 40.4839 -104.7225 64° Northeast 470 541 39,000  Level Denver Center
Thu 04:11:34 PM 40.5439 -104.5581 64° Northeast 469 540 39,000  Level Denver Center
Thu 04:12:36 PM 40.5997 -104.3989 65° Northeast 490 564 39,000  Level Denver Center
Thu 04:13:38 PM 40.6606 -104.2389 63° Northeast 461 531 39,000  Level Denver Center
Thu 04:14:40 PM 40.7131 -104.0750 67° East 497 572 39,000  Level Denver Center
Thu 04:15:42 PM 40.7717 -103.9128 64° Northeast 469 540 39,000  Level Denver Center
Thu 04:16:44 PM 40.8253 -103.7619 65° Northeast 471 542 39,000  Level Denver Center
Thu 04:17:46 PM 40.8783 -103.6117 65° Northeast 470 541 39,000  Level Denver Center
Thu 04:18:48 PM 40.9392 -103.4364 65° Northeast 472 543 39,000  Level Denver Center
Thu 04:19:50 PM 40.9925 -103.2856 65° Northeast 473 544 39,000  Level Denver Center
Thu 04:20:52 PM 41.0508 -103.1114 66° East 468 539 39,000  Level Denver Center
Thu 04:21:54 PM 41.1031 -102.9500 67° East 478 550 39,000  Level Denver Center
Thu 04:22:56 PM 41.1397 -102.7592 76° East 479 551 39,000  Level Denver Center
Thu 04:23:59 PM 41.1722 -102.5950 75° East 481 554 39,000  Level Denver Center
Thu 04:25:01 PM 41.2128 -102.4025 74° East 485 558 39,000  Level Denver Center
Thu 04:26:03 PM 41.2447 -102.2381 75° East 481 554 39,000  Level Denver Center
Thu 04:27:05 PM 41.2753 -102.0736 76° East 480 552 39,000  Level Denver Center
Thu 04:28:07 PM 41.3128 -101.8800 75° East 483 556 39,000  Level Denver Center
Thu 04:29:09 PM 41.3461 -101.7147 75° East 483 556 39,000  Level Denver Center
Thu 04:30:11 PM 41.3828 -101.5189 76° East 486 559 39,000  Level Denver Center
Thu 04:31:13 PM 41.4150 -101.3517 76° East 487 560 39,000  Level Denver Center
Thu 04:32:15 PM 41.4511 -101.1561 76° East 486 559 39,000  Level Denver Center
Thu 04:33:17 PM 41.4819 -100.9875 76° East 487 560 39,000  Level Denver Center
Thu 04:34:19 PM 41.5181 -100.7911 76° East 487 560 39,000  Level Denver Center
Thu 04:35:21 PM 41.5731 -100.6394 64° Northeast 469 540 39,000  Level Denver Center
Thu 04:36:23 PM 41.6381 -100.4931 59° Northeast 476 548 39,000  Level Denver Center
Thu 04:37:25 PM 41.6839 -100.3017 72° East 483 556 39,000  Level Denver Center
Thu 04:38:27 PM 41.7236 -100.1361 72° East 485 558 39,000  Level Denver Center
Thu 04:39:29 PM 41.7678 -99.9425 73° East 486 559 39,000  Level Denver Center
Thu 04:40:31 PM 41.8067 -99.7767 72° East 488 562 39,000  Level Denver Center
Thu 04:41:33 PM 41.8522 -99.5825 72° East 487 560 39,000  Level Denver Center
Thu 04:43:17 PM 41.9164 -99.3022 73° East 489 563 39,000  Level Minneapolis Center
Thu 04:44:19 PM 41.9561 -99.1261 73° East 490 564 39,000  Level Minneapolis Center
Thu 04:45:21 PM 41.9964 -98.9511 73° East 489 563 39,000  Level Minneapolis Center
Thu 04:46:22 PM 42.0356 -98.7739 73° East 492 566 39,000  Level Minneapolis Center
Thu 04:47:25 PM 42.0828 -98.5625 73° East 491 565 39,000  Level Minneapolis Center
Thu 04:48:27 PM 42.1208 -98.3850 74° East 491 565 39,000  Level Minneapolis Center
Thu 04:49:29 PM 42.1603 -98.2083 73° East 491 565 39,000  Level Minneapolis Center
Thu 04:50:31 PM 42.1975 -98.0292 74° East 494 568 39,000  Level Minneapolis Center
Thu 04:51:33 PM 42.2361 -97.8508 74° East 495 570 39,000  Level Minneapolis Center
Thu 04:52:35 PM 42.2697 -97.6919 74° East 497 572 39,000  Level Minneapolis Center
Thu 04:53:38 PM 42.3150 -97.4764 74° East 496 571 39,000  Level Minneapolis Center
Thu 04:54:40 PM 42.3525 -97.2964 74° East 497 572 39,000  Level Minneapolis Center
Thu 04:55:42 PM 42.3900 -97.1164 74° East 497 572 39,000  Level Minneapolis Center
Thu 04:56:44 PM 42.4342 -96.8994 75° East 499 574 39,000  Level Minneapolis Center
Thu 04:57:46 PM 42.4700 -96.7164 75° East 499 574 39,000  Level Minneapolis Center
Thu 04:58:48 PM 42.5075 -96.5339 74° East 502 578 39,000  Level Minneapolis Center
Thu 04:59:50 PM 42.5428 -96.3506 75° East 501 577 39,000  Level Minneapolis Center
Thu 05:00:52 PM 42.5789 -96.1656 75° East 506 582 39,000  Level Minneapolis Center
Thu 05:02:06 PM 42.6153 -95.9828 75° East 502 578 39,000  Level Minneapolis Center
Thu 05:03:09 PM 42.6653 -95.7247 75° East 503 579 39,000  Level Minneapolis Center
Thu 05:04:11 PM 42.6997 -95.5367 76° East 509 586 39,000  Level Minneapolis Center
Thu 05:05:13 PM 42.7300 -95.3764 76° East 500 575 39,000  Level Minneapolis Center
Thu 05:06:15 PM 42.7714 -95.1600 75° East 497 572 39,000  Level Minneapolis Center
Thu 05:07:17 PM 42.8047 -94.9747 76° East 503 579 39,000  Level Minneapolis Center
Thu 05:08:19 PM 42.8389 -94.7872 76° East 510 587 39,000  Level Minneapolis Center
Thu 05:09:21 PM 42.8736 -94.6025 76° East 507 583 39,000  Level Minneapolis Center
Thu 05:10:23 PM 42.9067 -94.4164 76° East 511 588 39,000  Level Minneapolis Center
Thu 05:11:25 PM 42.9453 -94.1911 77° East 512 589 39,000  Level Minneapolis Center
Thu 05:12:28 PM 42.9772 -94.0050 77° East 510 587 39,000  Level Minneapolis Center
Thu 05:13:30 PM 43.0103 -93.8183 76° East 511 588 39,000  Level Minneapolis Center
Thu 05:14:32 PM 43.0419 -93.6308 77° East 510 587 39,000  Level Minneapolis Center
Thu 05:15:34 PM 43.0742 -93.4433 77° East 512 589 39,000  Level Minneapolis Center
Thu 05:16:35 PM 43.0964 -93.2486 81° East 522 601 39,000  Level Minneapolis Center
Thu 05:17:38 PM 43.1017 -93.0081 88° East 532 612 39,000  Level Minneapolis Center
Thu 05:18:40 PM 43.1061 -92.8067 88° East 533 613 39,000  Level Minneapolis Center
Thu 05:19:55 PM 43.1111 -92.5669 88° East 531 611 39,000  Level Minneapolis Center
Thu 05:20:57 PM 43.1150 -92.3658 88° East 530 610 39,000  Level Minneapolis Center
Thu 05:21:59 PM 43.1194 -92.1242 88° East 531 611 39,000  Level Minneapolis Center
Thu 05:23:01 PM 43.1231 -91.9197 89° East 536 617 39,000  Level Minneapolis Center
Thu 05:24:03 PM 43.1275 -91.7150 88° East 537 618 39,000  Level Minneapolis Center
Thu 05:25:05 PM 43.1289 -91.5119 89° East 533 613 39,000  Level Minneapolis Center
Thu 05:26:07 PM 43.1314 -91.3053 89° East 539 620 39,000  Level Minneapolis Center
Thu 05:27:09 PM 43.1319 -91.1008 90° East 539 620 39,000  Level Minneapolis Center
Thu 05:28:11 PM 43.1322 -90.8561 90° East 537 618 39,000  Level Minneapolis Center
Thu 05:29:14 PM 43.1336 -90.6533 89° East 537 618 39,000  Level Minneapolis Center
Thu 05:30:16 PM 43.1339 -90.4514 90° East 536 617 39,000  Level Minneapolis Center
Thu 05:31:20 PM 43.1353 -90.2419 89° East 537 618 39,000  Level Chicago Center
Thu 05:32:22 PM 43.1331 -90.0036 91° East 538 619 39,000  Level Chicago Center
Thu 05:33:24 PM 43.1328 -89.7969 90° East 542 624 39,000  Level Chicago Center
Thu 05:34:26 PM 43.1319 -89.5900 90° East 544 626 39,000  Level Chicago Center
Thu 05:35:28 PM 43.1308 -89.3847 90° East 543 625 39,000  Level Chicago Center
Thu 05:36:30 PM 43.1278 -89.1800 91° East 540 621 39,000  Level Chicago Center
Thu 05:37:33 PM 43.1256 -88.9364 91° East 548 631 39,000 -96 Level Chicago Center
Thu 05:38:35 PM 43.1222 -88.7314 91° East 545 627 38,800 -629 Descending Chicago Center
Thu 05:39:37 PM 43.1197 -88.5250 91° East 546 628 37,700 -919 Descending Chicago Center
Thu 05:40:39 PM 43.1156 -88.3189 92° East 548 631 36,900 -919 Descending Chicago Center
Thu 05:41:41 PM 43.0925 -88.0650 97° East 578 665 35,800 -919 Descending Chicago Center
Thu 05:42:43 PM 43.0703 -87.8522 98° East 574 661 35,000 -387 Descending Chicago Center
Thu 05:43:45 PM 43.0464 -87.6381 99° East 571 657 35,000  Level Chicago Center
Thu 05:44:47 PM 43.0222 -87.4250 99° East 569 655 35,000  Level Chicago Center
Thu 05:45:50 PM 42.9975 -87.2119 99° East 573 659 35,000  Level Chicago Center
Thu 05:46:52 PM 42.9733 -86.9994 99° East 569 655 35,000 -484 Level Chicago Center
Thu 05:47:54 PM 42.9439 -86.7481 99° East 564 649 34,000 -919 Descending Chicago Center
Thu 05:48:56 PM 42.9192 -86.5422 99° East 556 640 33,100 -484 Descending Chicago Center
Thu 05:49:58 PM 42.8922 -86.3347 100° East 560 644 33,000 -145 Descending Chicago Center
Thu 05:51:00 PM 42.8650 -86.1272 100° East 567 652 32,800 -1,694 Descending Chicago Center
Thu 05:52:02 PM 42.8358 -85.8900 99° East 539 620 29,500 -2,952 Descending Chicago Center
Thu 05:53:04 PM 42.8119 -85.6947 99° East 532 612 26,700 -2,352 Descending Chicago Center
Thu 05:54:07 PM 42.7881 -85.5083 100° East 501 577 24,600 -1,872 Descending Chicago Center
Thu 05:55:09 PM 42.7739 -85.3281 96° East 482 555 22,800 -1,694 Descending Chicago Center
Thu 05:56:11 PM 42.7581 -85.1486 97° East 482 555 21,100 -871 Descending Chicago Center
Thu 05:57:13 PM 42.7511 -84.9400 93° East 459 528 21,000 -871 Descending Chicago Center
Thu 05:58:15 PM 42.7725 -84.7847 79° East 423 487 19,300 -1,887 Descending Chicago Center
Thu 05:59:17 PM 42.7953 -84.6478 77° East 385 443 17,100 -2,032 Descending Chicago Center
Thu 06:00:19 PM 42.8161 -84.5203 77° East 355 409 15,100 -1,935 Descending Chicago Center
Thu 06:01:21 PM 42.8361 -84.4003 77° East 333 383 13,100 -1,967 Descending Chicago Center
Thu 06:02:21 PM 42.8642 -84.2658 74° East 318 366 11,100 -1,008 Descending Cleveland Center
Thu 06:03:26 PM 42.8903 -84.1406 74° East 326 375 11,000 -611 Descending Chicago Center
Thu 06:04:09 PM 42.9081 -84.0558 74° East 328 377 10,000 -1,976 Descending Cleveland Center
Thu 06:04:51 PM 42.9208 -83.9742 78° East 311 358 8,200 -2,250 Descending Cleveland Center
Thu 06:05:21 PM 42.9119 -83.9283 105° East 309 356 7,300 -2,164 Descending Cleveland Center
Thu 06:05:52 PM 42.8831 -83.9128 158° South 210 242 6,000 -1,957 Descending Cleveland Center
Thu 06:06:53 PM 42.8164 -83.9147 181° South 229 264 4,300 -991 Descending Cleveland Center
Thu 06:07:47 PM 42.7622 -83.9119 178° South 224 258 4,100 -205 Descending Cleveland Center
Thu 06:08:21 PM 42.7419 -83.8939 147° Southeast 218 251 4,000 -64 Descending Cleveland Center
Thu 06:09:21 PM 42.6911 -83.8489 147° Southeast 212 244 4,000 -100 Level Cleveland Center
Thu 06:10:21 PM 42.6597 -83.7736 120° Southeast 205 236 3,800 -300 Descending Cleveland Center
Thu 06:11:21 PM 42.6556 -83.7031 95° East 186 214 3,400 -282 Descending Cleveland Center
Thu 06:12:50 PM 42.6603 -83.5986 86° East 190 219 3,100 -385 Descending Cleveland Center
Thu 06:13:57 PM 42.6600 -83.5308 90° East 157 181 2,400 -656 Descending Cleveland Center
Thu 06:14:58 PM 42.6636 -83.4747 85° East 118 136 1,700 -689 Descending Cleveland Center

Login

Don't have an account? Register now (free) for customized features, flight alerts, and more!